Time;durP1;ratioP1;P1;durP2;ratioP2;P2;SDS_P1;SDS_P2;PMS_P1;PMS_P2;Temp;Humidity;BMP_temperature;BMP_pressure;BME280_temperature;BME280_humidity;BME280_pressure;Samples;Min_cycle;Max_cycle;Signal;HPM_P1;HPM_P2
2024/01/03 00:01:03;;;;;;;0.30;0.20;;;8.40;99.90;;;;;;5069539;28;20213;-78
2024/01/03 00:03:31;;;;;;;0.32;0.30;;;8.40;99.90;;;;;;5070146;28;20676;-78
2024/01/03 00:05:58;;;;;;;0.30;0.20;;;8.40;99.90;;;;;;5070917;28;20186;-78
2024/01/03 00:08:30;;;;;;;0.50;0.50;;;8.40;99.90;;;;;;5070906;28;20204;-78
2024/01/03 00:10:56;;;;;;;0.30;0.20;;;8.40;99.90;;;;;;5070349;28;20178;-78
2024/01/03 00:13:34;;;;;;;0.30;0.20;;;8.50;99.90;;;;;;5070925;28;20235;-78
2024/01/03 00:15:59;;;;;;;0.30;0.20;;;8.50;99.90;;;;;;5071008;28;20192;-78
2024/01/03 00:18:49;;;;;;;0.30;0.27;;;8.50;99.90;;;;;;5069371;28;20216;-78
2024/01/03 00:21:19;;;;;;;0.30;0.20;;;8.60;99.90;;;;;;5069635;28;20506;-78
2024/01/03 00:23:49;;;;;;;0.30;0.30;;;8.60;99.90;;;;;;5069247;28;20205;-78
2024/01/03 00:26:14;;;;;;;0.30;0.20;;;8.60;99.90;;;;;;5070700;28;20639;-78
2024/01/03 00:28:41;;;;;;;0.30;0.20;;;8.70;99.90;;;;;;5070578;28;20204;-78
2024/01/03 00:31:09;;;;;;;0.30;0.20;;;8.80;99.90;;;;;;5070480;28;20712;-78
2024/01/03 00:33:40;;;;;;;1.95;1.85;;;8.90;99.90;;;;;;5069125;28;20283;-78
2024/01/03 00:36:11;;;;;;;0.30;0.20;;;9.00;99.90;;;;;;5070425;28;20535;-78
2024/01/03 00:38:41;;;;;;;0.30;0.20;;;9.00;99.90;;;;;;5070233;28;20213;-78
2024/01/03 00:41:09;;;;;;;0.50;0.47;;;9.10;99.90;;;;;;5068890;28;20752;-78
2024/01/03 00:43:36;;;;;;;0.30;0.20;;;9.20;99.90;;;;;;5067897;28;20227;-78
2024/01/03 00:46:02;;;;;;;0.30;0.20;;;9.30;99.90;;;;;;5068805;28;20189;-78
2024/01/03 00:48:28;;;;;;;0.30;0.20;;;9.30;99.90;;;;;;5070121;28;20284;-79
2024/01/03 00:50:54;;;;;;;0.30;0.20;;;9.30;99.90;;;;;;5069988;28;20255;-78
2024/01/03 00:53:20;;;;;;;0.30;0.20;;;9.40;99.90;;;;;;5068216;28;20661;-78
2024/01/03 00:55:46;;;;;;;0.30;0.20;;;9.40;99.90;;;;;;5070127;28;20414;-78
2024/01/03 00:58:12;;;;;;;0.30;0.20;;;9.40;99.90;;;;;;5069697;28;20216;-78
2024/01/03 01:00:38;;;;;;;0.30;0.20;;;9.50;99.90;;;;;;5070031;28;20435;-78
2024/01/03 01:03:05;;;;;;;0.30;0.20;;;9.60;99.90;;;;;;5069749;28;20201;-78
2024/01/03 01:05:31;;;;;;;0.30;0.20;;;9.60;99.90;;;;;;5069653;28;20457;-78
2024/01/03 01:07:57;;;;;;;0.30;0.20;;;9.60;99.90;;;;;;5069703;28;20611;-78
2024/01/03 01:10:22;;;;;;;0.30;0.20;;;9.60;99.90;;;;;;5068715;28;20256;-78
2024/01/03 01:12:48;;;;;;;0.30;0.20;;;9.60;99.90;;;;;;5069506;28;20192;-78
2024/01/03 01:15:14;;;;;;;1.13;1.13;;;9.60;99.90;;;;;;5068527;28;20242;-78
2024/01/03 01:17:41;;;;;;;0.30;0.30;;;9.60;99.90;;;;;;5068192;28;20209;-78
2024/01/03 01:20:07;;;;;;;0.30;0.20;;;9.60;99.90;;;;;;5069645;28;20188;-78
2024/01/03 01:22:33;;;;;;;0.30;0.30;;;9.60;99.90;;;;;;5067563;28;20204;-78
2024/01/03 01:24:59;;;;;;;0.30;0.20;;;9.60;99.90;;;;;;5068432;28;20645;-78
2024/01/03 01:27:26;;;;;;;0.40;0.40;;;9.70;99.90;;;;;;5068604;28;20518;-78
2024/01/03 01:29:52;;;;;;;0.30;0.20;;;9.60;99.90;;;;;;5069698;28;20638;-78
2024/01/03 01:32:18;;;;;;;0.40;0.40;;;9.60;99.90;;;;;;5068523;28;20192;-78
2024/01/03 01:34:43;;;;;;;0.30;0.20;;;9.60;99.90;;;;;;5069931;28;20220;-78
2024/01/03 01:37:09;;;;;;;0.30;0.20;;;9.60;99.90;;;;;;5068264;28;20256;-78
2024/01/03 01:39:35;;;;;;;0.97;0.97;;;9.60;99.90;;;;;;5068089;28;20220;-78
2024/01/03 01:42:01;;;;;;;2.00;1.90;;;9.60;99.90;;;;;;5068196;28;20469;-78
2024/01/03 01:44:26;;;;;;;0.30;0.20;;;9.60;99.90;;;;;;5068403;28;20204;-78
2024/01/03 01:46:53;;;;;;;0.30;0.20;;;9.60;99.90;;;;;;5067837;28;20490;-78
2024/01/03 01:49:19;;;;;;;0.32;0.30;;;9.60;99.90;;;;;;5068379;28;20541;-78
2024/01/03 01:51:46;;;;;;;0.85;0.85;;;9.60;99.90;;;;;;5069521;28;20191;-78
2024/01/03 01:54:13;;;;;;;0.80;0.80;;;9.60;99.90;;;;;;5067491;28;20232;-78
2024/01/03 01:56:40;;;;;;;2.35;2.25;;;9.60;99.90;;;;;;5069579;28;20230;-78
2024/01/03 01:59:10;;;;;;;0.30;0.20;;;9.60;99.90;;;;;;5067860;28;20642;-78
2024/01/03 02:01:36;;;;;;;0.30;0.20;;;9.60;99.90;;;;;;5069364;28;20222;-78
2024/01/03 02:04:07;;;;;;;2.55;2.45;;;9.60;99.90;;;;;;5067894;28;20233;-78
2024/01/03 02:06:34;;;;;;;2.85;2.58;;;9.60;99.90;;;;;;5067854;28;20270;-78
2024/01/03 02:08:59;;;;;;;0.30;0.20;;;9.60;99.90;;;;;;5069218;28;20200;-78
2024/01/03 02:11:25;;;;;;;0.30;0.20;;;9.60;99.90;;;;;;5069436;28;20185;-78
2024/01/03 02:13:51;;;;;;;0.30;0.30;;;9.60;99.90;;;;;;5067725;28;20574;-77
2024/01/03 02:16:17;;;;;;;0.30;0.20;;;9.60;99.90;;;;;;5069111;28;20447;-78
2024/01/03 02:18:44;;;;;;;0.30;0.20;;;9.60;99.90;;;;;;5067550;28;20217;-78
2024/01/03 02:21:15;;;;;;;0.30;0.20;;;9.60;99.90;;;;;;5069194;28;20181;-78
2024/01/03 02:23:41;;;;;;;0.30;0.20;;;9.70;99.90;;;;;;5068932;28;20551;-78
2024/01/03 02:26:08;;;;;;;0.30;0.20;;;9.70;99.90;;;;;;5067584;28;20189;-78
2024/01/03 02:28:34;;;;;;;0.65;0.65;;;9.80;99.90;;;;;;5068924;28;20343;-78
2024/01/03 02:31:00;;;;;;;0.30;0.20;;;9.80;99.90;;;;;;5068848;28;20264;-78
2024/01/03 02:33:25;;;;;;;0.30;0.20;;;9.80;99.90;;;;;;5071077;28;20264;-78
2024/01/03 02:35:52;;;;;;;0.30;0.20;;;9.80;99.90;;;;;;5072466;28;20182;-78
2024/01/03 02:38:18;;;;;;;0.30;0.30;;;9.80;99.90;;;;;;5072646;28;20548;-78
2024/01/03 02:40:44;;;;;;;0.30;0.20;;;9.90;99.90;;;;;;5071608;28;20656;-78
2024/01/03 02:43:10;;;;;;;0.30;0.20;;;9.90;99.90;;;;;;5070376;28;20216;-78
2024/01/03 02:45:36;;;;;;;0.30;0.20;;;9.90;99.90;;;;;;5070941;28;20189;-78
2024/01/03 02:48:02;;;;;;;0.30;0.20;;;10.00;99.90;;;;;;5071118;28;20197;-78
2024/01/03 02:50:28;;;;;;;1.83;1.73;;;10.00;99.90;;;;;;5072252;28;20185;-78
2024/01/03 02:52:54;;;;;;;0.30;0.30;;;10.00;99.90;;;;;;5071720;28;20192;-78
2024/01/03 02:55:21;;;;;;;0.30;0.20;;;10.10;99.90;;;;;;5072419;28;20180;-78
2024/01/03 02:57:47;;;;;;;0.30;0.20;;;10.20;99.90;;;;;;5070442;28;21051;-78
2024/01/03 03:00:13;;;;;;;0.30;0.20;;;10.20;99.90;;;;;;5072270;28;20376;-79
2024/01/03 03:02:38;;;;;;;0.30;0.20;;;10.20;99.90;;;;;;5072092;28;20415;-78
2024/01/03 03:05:04;;;;;;;0.57;0.57;;;10.20;99.90;;;;;;5072112;28;20328;-78
2024/01/03 03:07:30;;;;;;;0.30;0.20;;;10.20;99.90;;;;;;5072259;28;20185;-78
2024/01/03 03:09:56;;;;;;;0.30;0.20;;;10.30;99.90;;;;;;5072088;28;20653;-78
2024/01/03 03:12:21;;;;;;;0.30;0.20;;;10.30;99.90;;;;;;5072592;28;20626;-78
2024/01/03 03:14:49;;;;;;;0.77;0.77;;;10.30;99.90;;;;;;5070458;28;20576;-78
2024/01/03 03:17:15;;;;;;;0.30;0.20;;;10.30;99.90;;;;;;5072337;28;20224;-78
2024/01/03 03:19:40;;;;;;;0.30;0.20;;;10.40;99.90;;;;;;5072012;28;20193;-78
2024/01/03 03:22:06;;;;;;;0.30;0.30;;;10.40;99.90;;;;;;5072259;28;20181;-79
2024/01/03 03:24:32;;;;;;;0.30;0.20;;;10.40;99.90;;;;;;5071350;28;20744;-78
2024/01/03 03:26:57;;;;;;;0.30;0.20;;;10.50;99.90;;;;;;5071983;28;20185;-78
2024/01/03 03:29:23;;;;;;;0.30;0.20;;;10.50;99.90;;;;;;5072071;28;20185;-78
2024/01/03 03:31:49;;;;;;;0.30;0.30;;;10.50;99.90;;;;;;5071755;28;20260;-78
2024/01/03 03:34:18;;;;;;;0.40;0.40;;;10.50;99.90;;;;;;5070133;28;20460;-78
2024/01/03 03:36:45;;;;;;;0.30;0.20;;;10.50;99.90;;;;;;5071852;28;20185;-78
2024/01/03 03:39:10;;;;;;;0.30;0.20;;;10.50;99.90;;;;;;5071553;28;20724;-78
2024/01/03 03:41:37;;;;;;;0.30;0.20;;;10.50;99.90;;;;;;5071698;28;20177;-78
2024/01/03 03:44:03;;;;;;;0.30;0.20;;;10.60;99.90;;;;;;5070034;28;20946;-78
2024/01/03 03:46:29;;;;;;;0.30;0.20;;;10.60;99.90;;;;;;5071171;28;20184;-78
2024/01/03 03:48:55;;;;;;;0.30;0.20;;;10.50;99.90;;;;;;5071020;28;20275;-78
2024/01/03 03:51:21;;;;;;;0.40;0.40;;;10.60;99.90;;;;;;5071619;28;20280;-78
2024/01/03 03:53:46;;;;;;;0.30;0.20;;;10.60;99.90;;;;;;5070623;28;20642;-78
2024/01/03 03:56:22;;;;;;;0.30;0.20;;;10.60;99.90;;;;;;5070929;28;20315;-78
2024/01/03 03:58:48;;;;;;;0.30;0.20;;;10.50;99.90;;;;;;5069614;28;20221;-78
2024/01/03 04:01:14;;;;;;;0.40;0.30;;;10.50;99.90;;;;;;5071199;28;20519;-78
2024/01/03 04:03:40;;;;;;;0.30;0.20;;;10.50;99.90;;;;;;5069395;28;20432;-78
2024/01/03 04:06:05;;;;;;;1.70;1.60;;;10.50;99.90;;;;;;5070917;28;20190;-78
2024/01/03 04:08:31;;;;;;;0.30;0.23;;;10.50;99.90;;;;;;5070972;28;20650;-78
2024/01/03 04:10:57;;;;;;;1.37;1.37;;;10.50;99.90;;;;;;5069328;28;20181;-78
2024/01/03 04:13:22;;;;;;;0.30;0.20;;;10.40;99.90;;;;;;5069631;28;20716;-78
2024/01/03 04:15:48;;;;;;;0.30;0.20;;;10.40;99.90;;;;;;5069582;28;20181;-78
2024/01/03 04:18:14;;;;;;;0.30;0.20;;;10.40;99.90;;;;;;5070523;28;20224;-78
2024/01/03 04:20:40;;;;;;;1.47;1.37;;;10.40;99.90;;;;;;5069498;28;20642;-78
2024/01/03 04:23:05;;;;;;;0.30;0.20;;;10.50;99.90;;;;;;5071005;28;20220;-78
2024/01/03 04:25:31;;;;;;;0.30;0.20;;;10.50;99.90;;;;;;5070764;28;20417;-78
2024/01/03 04:27:57;;;;;;;0.30;0.20;;;10.40;99.90;;;;;;5070110;28;20221;-78
2024/01/03 04:30:22;;;;;;;1.90;1.80;;;10.40;99.90;;;;;;5070888;28;20437;-78
2024/01/03 04:32:48;;;;;;;0.30;0.20;;;10.50;99.90;;;;;;5069961;28;20189;-78
2024/01/03 04:35:14;;;;;;;0.30;0.20;;;10.40;99.90;;;;;;5070476;28;20177;-78
2024/01/03 04:37:40;;;;;;;0.30;0.20;;;10.40;99.90;;;;;;5070278;28;20254;-78
2024/01/03 04:40:06;;;;;;;1.43;1.37;;;10.30;99.90;;;;;;5070241;28;20169;-78
2024/01/03 04:42:32;;;;;;;0.40;0.40;;;10.20;99.90;;;;;;5068983;28;20185;-78
2024/01/03 04:44:58;;;;;;;1.30;1.30;;;10.20;99.90;;;;;;5069296;28;20792;-78
2024/01/03 04:47:24;;;;;;;0.30;0.20;;;10.10;99.90;;;;;;5070487;28;20176;-78
2024/01/03 04:49:50;;;;;;;0.30;0.20;;;10.10;99.90;;;;;;5069944;28;20220;-78
2024/01/03 04:52:15;;;;;;;0.30;0.20;;;10.20;99.90;;;;;;5069017;28;20193;-78
2024/01/03 04:54:41;;;;;;;0.30;0.20;;;10.10;99.90;;;;;;5069357;28;20976;-78
2024/01/03 04:57:07;;;;;;;0.30;0.20;;;10.00;99.90;;;;;;5069537;28;20181;-78
2024/01/03 04:59:33;;;;;;;0.30;0.20;;;10.00;99.90;;;;;;5068644;28;20237;-78
2024/01/03 05:01:58;;;;;;;0.40;0.40;;;10.00;99.90;;;;;;5070118;28;20434;-78
2024/01/03 05:04:24;;;;;;;3.40;3.23;;;10.00;99.90;;;;;;5070064;28;20228;-78
2024/01/03 05:06:50;;;;;;;0.30;0.20;;;9.90;99.90;;;;;;5069144;28;20258;-78
2024/01/03 05:09:16;;;;;;;0.30;0.20;;;9.90;99.90;;;;;;5069901;28;20662;-78
2024/01/03 05:11:42;;;;;;;0.30;0.20;;;9.80;99.90;;;;;;5068224;28;20715;-79
2024/01/03 05:14:08;;;;;;;0.30;0.20;;;9.70;99.90;;;;;;5068456;28;20197;-78
2024/01/03 05:16:34;;;;;;;0.30;0.20;;;9.60;99.90;;;;;;5069697;28;20182;-78
2024/01/03 05:19:00;;;;;;;0.30;0.20;;;9.60;99.90;;;;;;5068212;28;20247;-78
2024/01/03 05:21:25;;;;;;;0.30;0.20;;;9.60;99.90;;;;;;5068131;28;20434;-78
2024/01/03 05:23:51;;;;;;;0.30;0.20;;;9.60;99.90;;;;;;5069431;28;20813;-78
2024/01/03 05:26:16;;;;;;;2.23;2.13;;;9.60;99.90;;;;;;5069468;28;20188;-78
2024/01/03 05:28:42;;;;;;;0.30;0.20;;;9.50;99.90;;;;;;5068329;28;20192;-78
2024/01/03 05:31:08;;;;;;;0.30;0.20;;;9.50;99.90;;;;;;5067905;28;20217;-78
2024/01/03 05:33:34;;;;;;;0.30;0.20;;;9.60;99.90;;;;;;5068433;28;20197;-78
2024/01/03 05:35:59;;;;;;;0.30;0.20;;;9.60;99.90;;;;;;5069646;28;20198;-78
2024/01/03 05:38:25;;;;;;;0.30;0.20;;;9.60;99.90;;;;;;5068400;28;20217;-78
2024/01/03 05:40:51;;;;;;;0.30;0.20;;;9.50;99.90;;;;;;5067911;28;20192;-78
2024/01/03 05:43:17;;;;;;;0.30;0.20;;;9.50;99.90;;;;;;5068221;28;20284;-78
2024/01/03 05:45:43;;;;;;;0.30;0.20;;;9.50;99.90;;;;;;5069557;28;20185;-78
2024/01/03 05:48:09;;;;;;;0.30;0.20;;;9.50;99.90;;;;;;5069426;28;20239;-78
2024/01/03 05:50:35;;;;;;;0.30;0.20;;;9.40;99.90;;;;;;5067283;28;20596;-78
2024/01/03 05:53:00;;;;;;;0.30;0.20;;;9.50;99.90;;;;;;5068954;28;20263;-78
2024/01/03 05:55:27;;;;;;;1.83;1.83;;;9.40;99.90;;;;;;5070491;28;21338;-78
2024/01/03 05:57:52;;;;;;;0.30;0.20;;;9.50;99.90;;;;;;5087670;28;20208;-78
2024/01/03 06:00:18;;;;;;;0.30;0.20;;;9.40;99.90;;;;;;5086833;28;20176;-78
2024/01/03 06:02:44;;;;;;;0.30;0.20;;;9.50;99.90;;;;;;5086522;28;20180;-78
2024/01/03 06:05:12;;;;;;;0.30;0.20;;;9.50;99.90;;;;;;5089081;28;20216;-78
2024/01/03 06:07:38;;;;;;;0.30;0.20;;;9.40;99.90;;;;;;5089078;28;20172;-78
2024/01/03 06:10:05;;;;;;;0.30;0.20;;;9.40;99.90;;;;;;5088922;28;20172;-78
2024/01/03 06:12:31;;;;;;;0.30;0.20;;;9.40;99.90;;;;;;5079991;28;20341;-78
2024/01/03 06:14:57;;;;;;;0.30;0.20;;;9.30;99.90;;;;;;5082081;28;20529;-78
2024/01/03 06:17:23;;;;;;;14.10;13.32;;;9.30;99.90;;;;;;5079240;28;20201;-78
2024/01/03 06:19:48;;;;;;;0.30;0.20;;;9.30;99.90;;;;;;5078763;28;20731;-78
2024/01/03 06:22:14;;;;;;;0.30;0.20;;;9.30;99.90;;;;;;5082230;28;20412;-78
2024/01/03 06:24:40;;;;;;;0.30;0.20;;;9.30;99.90;;;;;;5078873;28;20232;-78
2024/01/03 06:27:06;;;;;;;0.30;0.20;;;9.30;99.90;;;;;;5080296;28;20423;-78
2024/01/03 06:29:31;;;;;;;0.30;0.20;;;9.30;99.90;;;;;;5081022;28;20245;-78
2024/01/03 06:31:57;;;;;;;0.30;0.20;;;9.30;99.90;;;;;;5087153;28;20416;-78
2024/01/03 06:34:23;;;;;;;0.30;0.20;;;9.30;99.90;;;;;;5091350;28;20284;-78
2024/01/03 06:36:48;;;;;;;0.30;0.20;;;9.30;99.90;;;;;;5090182;28;20184;-78
2024/01/03 06:39:14;;;;;;;8.13;1.47;;;9.20;99.90;;;;;;5090935;28;20250;-78
2024/01/03 06:41:40;;;;;;;0.30;0.20;;;9.20;99.90;;;;;;5089265;28;20559;-78
2024/01/03 06:44:06;;;;;;;0.30;0.20;;;9.20;99.90;;;;;;5089678;28;20466;-78
2024/01/03 06:46:31;;;;;;;0.40;0.30;;;9.20;99.90;;;;;;5089033;28;20624;-78
2024/01/03 06:48:57;;;;;;;0.30;0.20;;;9.30;99.90;;;;;;5088703;28;20539;-78
2024/01/03 06:51:23;;;;;;;0.30;0.20;;;9.30;99.90;;;;;;5089068;28;20495;-78
2024/01/03 06:53:49;;;;;;;0.30;0.20;;;9.40;99.90;;;;;;5090511;28;20434;-78
2024/01/03 06:56:23;;;;;;;0.30;0.20;;;9.30;99.90;;;;;;5091102;28;20929;-78
2024/01/03 06:58:52;;;;;;;0.30;0.30;;;9.30;99.90;;;;;;5092007;28;20212;-78
2024/01/03 07:01:17;;;;;;;0.30;0.30;;;9.30;99.90;;;;;;5091582;28;20638;-78
2024/01/03 07:03:43;;;;;;;0.30;0.20;;;9.30;99.90;;;;;;5089740;28;20207;-78
2024/01/03 07:06:09;;;;;;;0.30;0.20;;;9.40;99.90;;;;;;5092337;28;20656;-78
2024/01/03 07:08:35;;;;;;;2.57;2.47;;;9.40;99.90;;;;;;5090056;28;21055;-78
2024/01/03 07:11:01;;;;;;;0.30;0.20;;;9.30;99.90;;;;;;5083181;28;20446;-78
2024/01/03 07:13:27;;;;;;;0.30;0.30;;;9.40;99.90;;;;;;5079392;28;20918;-77
2024/01/03 07:15:52;;;;;;;2.13;2.03;;;9.30;99.90;;;;;;5087030;28;20208;-78
2024/01/03 07:18:18;;;;;;;1.33;1.33;;;9.30;99.90;;;;;;5088612;28;20220;-78
2024/01/03 07:20:44;;;;;;;0.30;0.20;;;9.30;99.90;;;;;;5079222;28;20586;-78
2024/01/03 07:23:09;;;;;;;0.30;0.20;;;9.30;99.90;;;;;;5074907;28;20211;-78
2024/01/03 07:25:35;;;;;;;0.30;0.20;;;9.20;99.90;;;;;;5077255;28;20295;-78
2024/01/03 07:28:01;;;;;;;0.30;0.20;;;9.30;99.90;;;;;;5069025;28;20460;-78
2024/01/03 07:30:28;;;;;;;0.30;0.20;;;9.40;99.90;;;;;;5068969;28;20276;-78
2024/01/03 07:32:57;;;;;;;0.30;0.20;;;9.40;99.90;;;;;;5068708;28;20199;-78
2024/01/03 07:35:24;;;;;;;0.30;0.20;;;9.40;99.90;;;;;;5069155;28;20161;-78
2024/01/03 07:37:50;;;;;;;0.30;0.20;;;9.40;99.90;;;;;;5066545;28;20284;-78
2024/01/03 07:40:16;;;;;;;0.30;0.20;;;9.40;99.90;;;;;;5066972;28;20252;-78
2024/01/03 07:42:42;;;;;;;0.30;0.30;;;9.50;99.90;;;;;;5083773;28;20424;-78
2024/01/03 07:45:08;;;;;;;3.90;3.70;;;9.60;99.90;;;;;;5087211;28;20413;-78
2024/01/03 07:47:34;;;;;;;0.30;0.20;;;9.70;99.90;;;;;;5086201;28;20192;-78
2024/01/03 07:50:00;;;;;;;0.30;0.20;;;9.70;99.90;;;;;;5087839;28;20200;-78
2024/01/03 07:52:26;;;;;;;0.67;0.67;;;9.80;99.90;;;;;;5086142;28;20180;-78
2024/01/03 07:54:52;;;;;;;0.30;0.20;;;9.90;99.90;;;;;;5087364;28;20425;-78
2024/01/03 07:57:18;;;;;;;0.43;0.43;;;9.90;99.90;;;;;;5089604;28;20254;-78
2024/01/03 07:59:45;;;;;;;0.30;0.20;;;10.00;99.90;;;;;;5089804;28;20495;-78
2024/01/03 08:02:12;;;;;;;0.30;0.20;;;10.00;99.90;;;;;;5086157;28;20211;-78
2024/01/03 08:04:38;;;;;;;1.30;1.30;;;10.10;99.90;;;;;;5089834;28;20744;-78
2024/01/03 08:07:04;;;;;;;1.40;1.30;;;10.10;99.90;;;;;;5090321;28;20246;-78
2024/01/03 08:09:32;;;;;;;0.30;0.20;;;10.10;99.90;;;;;;5087975;28;20676;-78
2024/01/03 08:11:57;;;;;;;0.30;0.20;;;10.20;99.90;;;;;;5089183;28;20188;-78
2024/01/03 08:14:23;;;;;;;1.70;1.60;;;10.20;99.90;;;;;;5088902;28;20196;-78
2024/01/03 08:16:49;;;;;;;1.03;1.00;;;10.20;99.90;;;;;;5086291;28;20184;-78
2024/01/03 08:19:15;;;;;;;0.30;0.20;;;10.20;99.90;;;;;;5088414;28;20469;-78
2024/01/03 08:21:41;;;;;;;2.00;1.70;;;10.30;99.90;;;;;;5086273;28;20455;-78
2024/01/03 08:24:07;;;;;;;0.85;0.85;;;10.40;99.90;;;;;;5088848;28;20192;-78
2024/01/03 08:26:33;;;;;;;0.30;0.20;;;10.40;99.90;;;;;;5087477;28;20191;-78
2024/01/03 08:28:58;;;;;;;0.30;0.20;;;10.40;99.90;;;;;;5090008;28;20241;-78
2024/01/03 08:31:24;;;;;;;0.30;0.20;;;10.50;99.90;;;;;;5088758;28;20221;-78
2024/01/03 08:33:49;;;;;;;0.30;0.20;;;10.60;99.90;;;;;;5088919;28;20188;-78
2024/01/03 08:36:15;;;;;;;0.30;0.20;;;10.60;99.90;;;;;;5087693;28;20637;-78
2024/01/03 08:38:42;;;;;;;0.30;0.20;;;10.60;99.90;;;;;;5087725;28;20240;-78
2024/01/03 08:41:15;;;;;;;0.30;0.20;;;10.70;99.90;;;;;;5085086;28;20247;-78
2024/01/03 08:43:41;;;;;;;0.30;0.20;;;10.70;99.90;;;;;;5087122;28;20184;-78
2024/01/03 08:46:08;;;;;;;0.30;0.20;;;10.70;99.90;;;;;;5085859;28;20291;-77
2024/01/03 08:48:34;;;;;;;5.07;4.88;;;10.80;99.90;;;;;;5084709;28;20207;-77
2024/01/03 08:50:59;;;;;;;0.30;0.20;;;11.00;99.90;;;;;;5086386;28;20897;-78
2024/01/03 08:53:25;;;;;;;0.30;0.20;;;11.20;99.90;;;;;;5088020;28;20277;-80
2024/01/03 08:55:51;;;;;;;0.30;0.20;;;11.30;99.90;;;;;;5080695;28;20438;-77
2024/01/03 08:58:17;;;;;;;0.30;0.20;;;11.20;99.90;;;;;;5085499;28;20230;-78
2024/01/03 09:00:44;;;;;;;0.30;0.20;;;11.20;99.90;;;;;;5086394;28;20437;-78
2024/01/03 09:03:10;;;;;;;0.63;0.63;;;11.20;99.90;;;;;;5085213;28;20201;-79
2024/01/03 09:05:36;;;;;;;0.30;0.20;;;11.30;99.90;;;;;;5085611;28;20248;-79
2024/01/03 09:08:01;;;;;;;0.30;0.20;;;11.20;99.90;;;;;;5087127;28;20754;-78
2024/01/03 09:10:27;;;;;;;13.83;4.90;;;11.30;99.90;;;;;;5087993;28;20415;-76
2024/01/03 09:12:54;;;;;;;0.30;0.30;;;11.30;99.90;;;;;;5087234;28;20729;-77
2024/01/03 09:15:19;;;;;;;0.70;0.70;;;11.30;99.90;;;;;;5087233;28;20578;-79
2024/01/03 09:17:45;;;;;;;0.33;0.30;;;11.20;99.90;;;;;;5085967;28;20223;-77
2024/01/03 09:20:11;;;;;;;6.80;6.27;;;11.20;99.90;;;;;;5075873;28;20657;-76
2024/01/03 09:22:38;;;;;;;0.40;0.40;;;11.20;99.90;;;;;;5085558;28;20436;-79
2024/01/03 09:25:04;;;;;;;0.30;0.20;;;11.20;99.90;;;;;;5082778;28;20177;-77
2024/01/03 09:27:30;;;;;;;0.30;0.20;;;11.20;99.90;;;;;;5083317;28;20220;-81
2024/01/03 09:29:56;;;;;;;0.30;0.20;;;11.20;99.90;;;;;;5084188;28;21152;-79
2024/01/03 09:32:22;;;;;;;0.70;0.70;;;11.20;99.90;;;;;;5085693;28;21007;-80
2024/01/03 09:34:47;;;;;;;0.30;0.20;;;11.30;99.90;;;;;;5085430;28;20283;-80
2024/01/03 09:37:16;;;;;;;0.30;0.20;;;11.40;99.90;;;;;;5086013;28;20195;-78
2024/01/03 09:39:42;;;;;;;0.30;0.20;;;11.40;99.90;;;;;;5087319;28;20189;-77
2024/01/03 09:42:08;;;;;;;0.30;0.20;;;11.50;99.90;;;;;;5086214;28;20238;-79
2024/01/03 09:44:35;;;;;;;0.30;0.20;;;11.50;99.90;;;;;;5083395;28;20601;-79
2024/01/03 09:47:01;;;;;;;0.30;0.20;;;11.60;99.90;;;;;;5084512;28;20470;-76
2024/01/03 09:49:27;;;;;;;0.30;0.20;;;11.60;99.90;;;;;;5083954;28;20235;-76
2024/01/03 09:51:54;;;;;;;0.30;0.20;;;11.60;99.90;;;;;;5085871;28;20472;-79
2024/01/03 09:54:20;;;;;;;0.30;0.20;;;11.60;99.90;;;;;;5084063;28;20433;-75
2024/01/03 09:56:47;;;;;;;0.30;0.20;;;11.60;99.90;;;;;;5084797;28;20431;-78
2024/01/03 09:59:17;;;;;;;0.30;0.20;;;11.60;99.90;;;;;;5085079;28;20571;-76
2024/01/03 10:01:59;;;;;;;0.30;0.20;;;11.70;99.90;;;;;;5084147;28;20471;-78
2024/01/03 10:04:25;;;;;;;0.30;0.20;;;11.70;99.90;;;;;;5085271;28;20239;-78
2024/01/03 10:06:53;;;;;;;0.30;0.20;;;11.80;99.90;;;;;;5086024;28;20423;-77
2024/01/03 10:09:18;;;;;;;0.30;0.20;;;11.90;99.90;;;;;;5088398;28;20439;-76
2024/01/03 10:11:44;;;;;;;0.30;0.20;;;11.90;99.90;;;;;;5088242;28;21028;-77
2024/01/03 10:14:19;;;;;;;1.63;1.53;;;12.00;99.90;;;;;;5085758;28;20283;-76
2024/01/03 10:16:45;;;;;;;0.30;0.30;;;11.90;99.90;;;;;;5098079;28;20827;-76
2024/01/03 10:19:13;;;;;;;0.30;0.20;;;12.00;99.90;;;;;;5085952;28;20961;-80
2024/01/03 10:21:53;;;;;;;2.67;2.57;;;12.00;99.90;;;;;;5083462;28;20421;-80
2024/01/03 10:24:20;;;;;;;0.70;0.70;;;12.00;99.90;;;;;;5083516;28;20437;-81
2024/01/03 10:26:46;;;;;;;0.30;0.30;;;12.10;99.90;;;;;;5082404;28;20956;-77
2024/01/03 10:29:14;;;;;;;0.60;0.57;;;12.00;99.90;;;;;;5081537;28;20436;-80
2024/01/03 10:31:41;;;;;;;0.30;0.20;;;12.00;99.90;;;;;;5084772;28;20645;-81
2024/01/03 10:34:15;;;;;;;1.77;1.60;;;12.00;99.90;;;;;;5084849;28;20448;-80
2024/01/03 10:36:47;;;;;;;0.30;0.20;;;12.00;99.90;;;;;;5080703;28;20522;-75
2024/01/03 10:39:19;;;;;;;0.30;0.20;;;12.10;99.90;;;;;;5082727;28;20864;-77
2024/01/03 10:41:47;;;;;;;0.30;0.20;;;12.20;99.90;;;;;;5064306;28;20471;-77
2024/01/03 10:44:17;;;;;;;15.90;4.83;;;12.20;99.90;;;;;;5075738;28;20468;-82
2024/01/03 10:46:47;;;;;;;0.30;0.20;;;12.20;99.90;;;;;;5086337;28;20798;-81
2024/01/03 10:49:15;;;;;;;0.30;0.20;;;12.20;99.90;;;;;;5085213;28;20436;-82
2024/01/03 10:51:43;;;;;;;0.30;0.20;;;12.30;99.90;;;;;;5083978;28;20798;-83
2024/01/03 10:54:16;;;;;;;0.30;0.20;;;12.30;99.90;;;;;;5086181;28;20841;-82
2024/01/03 10:56:52;;;;;;;0.30;0.20;;;12.30;99.90;;;;;;5088207;28;20445;-77
2024/01/03 10:59:27;;;;;;;0.30;0.20;;;12.30;99.90;;;;;;5090055;28;20828;-81
2024/01/03 11:02:03;;;;;;;0.30;0.20;;;12.30;99.90;;;;;;5090631;28;20457;-80
2024/01/03 11:04:43;;;;;;;0.37;0.37;;;12.40;99.90;;;;;;5090334;28;20460;-77
2024/01/03 11:07:28;;;;;;;0.30;0.20;;;12.40;99.90;;;;;;5089481;28;20429;-77
2024/01/03 11:09:54;;;;;;;0.30;0.20;;;12.40;99.90;;;;;;5089351;28;20458;-78
2024/01/03 11:12:27;;;;;;;0.30;0.20;;;12.40;99.90;;;;;;5091160;28;20901;-78
2024/01/03 11:14:53;;;;;;;0.30;0.20;;;12.40;99.90;;;;;;5089768;28;20653;-77
2024/01/03 11:17:33;;;;;;;0.30;0.20;;;12.50;99.90;;;;;;5090199;28;20417;-81
2024/01/03 11:20:08;;;;;;;0.30;0.20;;;12.50;99.90;;;;;;5088552;28;20176;-82
2024/01/03 11:23:04;;;;;;;0.30;0.20;;;12.50;99.90;;;;;;5085081;28;20953;-78
2024/01/03 11:25:51;;;;;;;0.30;0.20;;;12.60;99.90;;;;;;5085517;28;20458;-78
2024/01/03 11:28:33;;;;;;;0.30;0.20;;;12.70;99.90;;;;;;5088120;28;20919;-78
2024/01/03 11:31:00;;;;;;;0.30;0.20;;;12.70;99.90;;;;;;5072549;28;21024;-77
2024/01/03 11:33:30;;;;;;;0.30;0.20;;;12.70;99.90;;;;;;5078775;28;20456;-82
2024/01/03 11:35:56;;;;;;;0.30;0.20;;;12.70;99.90;;;;;;5083273;28;20440;-82
2024/01/03 11:38:41;;;;;;;0.30;0.20;;;12.70;99.90;;;;;;5088387;28;20475;-79
2024/01/03 11:41:08;;;;;;;0.30;0.20;;;12.70;99.90;;;;;;5085070;28;20459;-78
2024/01/03 11:43:34;;;;;;;0.30;0.20;;;12.70;99.90;;;;;;5086112;28;20440;-82
2024/01/03 11:46:10;;;;;;;0.30;0.20;;;12.80;99.90;;;;;;5084585;28;20616;-78
2024/01/03 11:48:37;;;;;;;0.30;0.20;;;12.80;99.90;;;;;;5086505;28;20443;-82
2024/01/03 11:51:23;;;;;;;0.30;0.20;;;12.80;99.90;;;;;;5085186;28;20425;-78
2024/01/03 11:53:50;;;;;;;0.30;0.20;;;12.90;99.90;;;;;;5086461;28;20445;-79
2024/01/03 11:56:31;;;;;;;0.30;0.20;;;12.90;99.90;;;;;;5087334;28;20431;-82
2024/01/03 11:58:57;;;;;;;0.30;0.20;;;12.90;99.90;;;;;;5083582;28;20484;-78
2024/01/03 12:01:23;;;;;;;0.30;0.20;;;13.00;99.90;;;;;;5069190;28;20418;-79
2024/01/03 12:03:51;;;;;;;0.30;0.20;;;13.00;99.90;;;;;;5069493;28;20434;-78
2024/01/03 12:06:20;;;;;;;5.50;2.10;;;13.00;99.90;;;;;;5065956;28;21078;-82
2024/01/03 12:08:46;;;;;;;0.30;0.20;;;13.10;99.90;;;;;;5067007;28;20963;-80
2024/01/03 12:11:12;;;;;;;0.47;0.47;;;13.00;99.90;;;;;;5088211;28;20424;-79
2024/01/03 12:13:38;;;;;;;0.30;0.20;;;13.00;99.90;;;;;;5089401;28;20459;-79
2024/01/03 12:16:04;;;;;;;3.70;0.93;;;13.00;99.90;;;;;;5089509;28;20420;-81
2024/01/03 12:18:31;;;;;;;0.30;0.20;;;13.00;99.90;;;;;;5090418;28;20903;-81
2024/01/03 12:20:57;;;;;;;1.50;1.40;;;13.00;99.90;;;;;;5085926;28;20457;-81
2024/01/03 12:23:22;;;;;;;0.30;0.20;;;13.00;99.90;;;;;;5085966;28;20525;-81
2024/01/03 12:25:48;;;;;;;0.30;0.20;;;12.90;99.90;;;;;;5086848;28;20247;-81
2024/01/03 12:28:20;;;;;;;3.20;3.10;;;12.90;99.90;;;;;;5087693;28;20192;-81
2024/01/03 12:30:46;;;;;;;0.30;0.20;;;12.90;99.90;;;;;;5077700;28;20191;-79
2024/01/03 12:33:15;;;;;;;0.30;0.20;;;13.00;99.90;;;;;;5066057;28;20429;-79
2024/01/03 12:35:45;;;;;;;0.30;0.20;;;13.00;99.90;;;;;;5067748;28;20336;-79
2024/01/03 12:38:11;;;;;;;0.30;0.20;;;13.00;99.90;;;;;;5082107;28;20481;-80
2024/01/03 12:40:37;;;;;;;0.30;0.20;;;13.00;99.90;;;;;;5089142;28;20425;-81
2024/01/03 12:43:03;;;;;;;0.30;0.20;;;12.90;99.90;;;;;;5086262;28;20465;-79
2024/01/03 12:45:29;;;;;;;2.43;0.77;;;13.00;99.90;;;;;;5088224;28;20420;-81
2024/01/03 12:47:54;;;;;;;0.63;0.60;;;13.00;99.90;;;;;;5085457;28;20471;-79
2024/01/03 12:50:21;;;;;;;0.30;0.20;;;13.00;99.90;;;;;;5088950;28;20652;-82